createdAt,value
2023-10-20T00:02:05.159Z,14.10
2023-10-20T00:05:47.385Z,14.10
2023-10-20T00:09:30.505Z,14.10
2023-10-20T00:13:12.842Z,14.10
2023-10-20T00:16:54.941Z,14.10
2023-10-20T00:20:37.118Z,14.10
2023-10-20T00:24:19.125Z,14.10
2023-10-20T00:28:01.533Z,14.10
2023-10-20T00:31:43.596Z,14.10
2023-10-20T00:35:25.754Z,14.10
2023-10-20T00:39:07.811Z,14.00
2023-10-20T00:42:50.836Z,14.10
2023-10-20T00:46:33.246Z,14.10
2023-10-20T00:50:17.161Z,14.10
2023-10-20T00:54:01.093Z,14.10
2023-10-20T00:57:47.341Z,14.10
2023-10-20T01:01:29.785Z,14.20
2023-10-20T01:05:16.062Z,14.20
2023-10-20T01:08:58.563Z,14.20
2023-10-20T01:12:41.378Z,14.20
2023-10-20T01:16:24.675Z,14.20
2023-10-20T01:20:07.734Z,14.20
2023-10-20T01:23:54.715Z,14.20
2023-10-20T01:27:36.876Z,14.20
2023-10-20T01:31:18.869Z,14.20
2023-10-20T01:35:01.842Z,14.20
2023-10-20T01:38:44.503Z,14.20
2023-10-20T01:42:26.547Z,14.20
2023-10-20T01:46:08.500Z,14.20
2023-10-20T01:49:50.963Z,14.20
2023-10-20T01:53:33.942Z,14.20
2023-10-20T01:57:16.227Z,14.10
2023-10-20T02:00:58.902Z,14.10
2023-10-20T02:04:41.034Z,14.10
2023-10-20T02:08:23.027Z,14.00
2023-10-20T02:12:05.750Z,14.00
2023-10-20T02:15:48.689Z,14.00
2023-10-20T02:19:30.704Z,14.00
2023-10-20T02:23:12.898Z,14.00
2023-10-20T02:26:55.138Z,14.00
2023-10-20T02:30:37.092Z,13.90
2023-10-20T02:34:19.200Z,13.90
2023-10-20T02:38:01.283Z,13.90
2023-10-20T02:41:43.435Z,13.90
2023-10-20T02:45:25.553Z,13.90
2023-10-20T02:49:07.647Z,13.80
2023-10-20T02:52:49.654Z,13.80
2023-10-20T02:56:31.667Z,13.80
2023-10-20T03:00:19.340Z,13.70
2023-10-20T03:04:01.591Z,13.70
2023-10-20T03:07:43.793Z,13.80
2023-10-20T03:11:25.868Z,13.70
2023-10-20T03:15:10.216Z,13.80
2023-10-20T03:18:52.155Z,13.80
2023-10-20T03:22:34.105Z,13.80
2023-10-20T03:26:16.924Z,13.80
2023-10-20T03:29:59.053Z,13.80
2023-10-20T03:33:41.988Z,13.70
2023-10-20T03:37:24.084Z,13.80
2023-10-20T03:41:11.252Z,13.80
2023-10-20T03:44:53.355Z,13.80
2023-10-20T03:48:36.431Z,13.80
2023-10-20T03:52:20.053Z,13.90
2023-10-20T03:56:04.359Z,13.80
2023-10-20T03:59:48.054Z,13.80
2023-10-20T04:03:33.484Z,13.80
2023-10-20T04:07:16.388Z,13.80
2023-10-20T04:10:59.669Z,13.80
2023-10-20T04:14:42.874Z,13.80
2023-10-20T04:18:25.457Z,13.80
2023-10-20T04:22:14.122Z,13.80
2023-10-20T04:25:56.524Z,13.70
2023-10-20T04:29:49.050Z,13.80
2023-10-20T04:33:49.948Z,13.80
2023-10-20T04:37:50.796Z,13.80
2023-10-20T04:41:56.426Z,13.80
2023-10-20T04:45:56.987Z,13.80
2023-10-20T04:49:51.128Z,13.80
2023-10-20T04:53:52.029Z,13.80
2023-10-20T04:57:52.214Z,13.70
2023-10-20T05:01:50.975Z,13.70
2023-10-20T05:05:42.535Z,13.70
2023-10-20T05:09:26.571Z,13.60
2023-10-20T05:13:08.538Z,13.60
2023-10-20T05:16:50.548Z,13.60
2023-10-20T05:20:33.318Z,13.50
2023-10-20T05:24:15.438Z,13.50
2023-10-20T05:27:57.495Z,13.50
2023-10-20T05:31:39.948Z,13.50
2023-10-20T05:35:22.099Z,13.50
2023-10-20T05:39:04.333Z,13.50
2023-10-20T05:42:46.471Z,13.50
2023-10-20T05:46:30.394Z,13.50
2023-10-20T05:50:13.079Z,13.50
2023-10-20T05:53:55.119Z,13.50
2023-10-20T05:57:37.162Z,13.40
2023-10-20T06:01:19.813Z,13.40
2023-10-20T06:05:02.519Z,13.40
2023-10-20T06:08:45.305Z,13.30
2023-10-20T06:12:27.416Z,13.30
2023-10-20T06:16:11.554Z,13.30
2023-10-20T06:19:54.331Z,13.30
2023-10-20T06:23:36.573Z,13.20
2023-10-20T06:27:18.649Z,13.20
2023-10-20T06:31:23.699Z,13.20
2023-10-20T06:35:06.330Z,13.20
2023-10-20T06:38:48.443Z,13.20
2023-10-20T06:42:30.856Z,13.30
2023-10-20T06:46:13.109Z,13.30
2023-10-20T06:49:55.230Z,13.40
2023-10-20T06:53:37.590Z,13.30
2023-10-20T06:57:21.582Z,13.30
2023-10-20T07:01:07.359Z,13.30
2023-10-20T07:04:52.631Z,13.30
2023-10-20T07:08:35.323Z,13.30
2023-10-20T07:12:17.408Z,13.30
2023-10-20T07:16:00.296Z,13.30
2023-10-20T07:19:42.779Z,13.30
2023-10-20T07:23:25.229Z,13.40
2023-10-20T07:27:12.081Z,13.50
2023-10-20T07:30:55.188Z,13.50
2023-10-20T07:34:37.645Z,13.60
2023-10-20T07:38:28.595Z,13.80
2023-10-20T07:42:11.045Z,14.00
2023-10-20T07:45:53.428Z,14.20
2023-10-20T07:49:42.500Z,14.40
2023-10-20T07:53:24.680Z,14.50
2023-10-20T07:57:08.434Z,14.70
2023-10-20T08:00:56.634Z,15.00
2023-10-20T08:04:38.961Z,15.30
2023-10-20T08:08:23.731Z,15.50
2023-10-20T08:12:13.761Z,15.70
2023-10-20T08:15:56.471Z,15.90
2023-10-20T08:19:38.751Z,16.10
2023-10-20T08:23:29.705Z,16.20
2023-10-20T08:27:12.598Z,16.30
2023-10-20T08:31:23.691Z,16.30
2023-10-20T08:35:09.725Z,16.20
2023-10-20T08:38:53.138Z,16.10
2023-10-20T08:42:40.035Z,16.00
2023-10-20T08:46:24.808Z,16.00
2023-10-20T08:58:32.621Z,15.90
2023-10-20T09:02:14.858Z,16.00
2023-10-20T09:06:43.135Z,16.20
2023-10-20T09:10:56.211Z,16.30
2023-10-20T09:14:42.537Z,16.40
2023-10-20T09:22:32.189Z,16.30
2023-10-20T09:27:01.230Z,16.20
2023-10-20T09:31:11.711Z,16.20
2023-10-20T09:34:55.804Z,16.80
2023-10-20T09:39:05.364Z,18.50
2023-10-20T09:42:56.964Z,19.40
2023-10-20T09:47:18.997Z,19.80
2023-10-20T09:55:10.386Z,20.70
2023-10-20T10:03:10.388Z,20.30
2023-10-20T10:10:57.891Z,19.80
2023-10-20T10:15:15.350Z,19.70
2023-10-20T10:23:17.022Z,18.90
2023-10-20T10:31:14.008Z,18.20
2023-10-20T10:44:30.264Z,17.90
2023-10-20T10:48:14.533Z,18.00
2023-10-20T10:52:42.629Z,18.00
2023-10-20T11:00:38.773Z,18.00
2023-10-20T11:17:21.143Z,18.10
2023-10-20T11:25:07.232Z,17.90
2023-10-20T11:28:50.946Z,17.90
2023-10-20T11:32:57.933Z,18.10
2023-10-20T11:36:40.316Z,18.10
2023-10-20T11:40:51.079Z,18.00
2023-10-20T11:44:33.738Z,18.10
2023-10-20T11:52:27.906Z,18.20
2023-10-20T11:56:56.328Z,18.10
2023-10-20T12:01:07.322Z,18.00
2023-10-20T12:04:49.501Z,17.90
2023-10-20T12:09:00.181Z,17.90
2023-10-20T12:12:42.507Z,17.90
2023-10-20T12:20:36.835Z,17.80
2023-10-20T12:24:48.072Z,17.60
2023-10-20T12:28:30.829Z,17.40
2023-10-20T12:32:59.346Z,17.30
2023-10-20T12:37:12.475Z,17.20
2023-10-20T12:40:54.625Z,17.00
2023-10-20T12:45:22.193Z,16.90
2023-10-20T12:49:50.402Z,16.80
2023-10-20T12:54:03.439Z,16.60
2023-10-20T12:57:46.345Z,16.50
2023-10-20T13:05:41.567Z,16.30
2023-10-20T13:09:51.705Z,16.20
2023-10-20T13:13:33.859Z,16.20
2023-10-20T13:26:00.539Z,16.60
2023-10-20T13:30:28.487Z,16.90
2023-10-20T13:34:57.119Z,17.00
2023-10-20T13:42:54.128Z,17.20
2023-10-20T13:55:14.742Z,17.30
2023-10-20T13:59:21.569Z,17.30
2023-10-20T14:03:04.936Z,17.50
2023-10-20T14:12:07.287Z,17.70
2023-10-20T14:16:21.285Z,17.80
2023-10-20T14:20:04.050Z,17.80
2023-10-20T14:27:58.622Z,17.70
2023-10-20T14:32:01.966Z,17.70
2023-10-20T14:35:44.722Z,17.70
2023-10-20T14:43:36.517Z,17.60
2023-10-20T14:51:31.687Z,17.50
2023-10-20T15:03:55.371Z,17.10
2023-10-20T15:08:07.259Z,17.00
2023-10-20T15:11:49.691Z,16.90
2023-10-20T15:19:35.674Z,16.90
2023-10-20T15:23:53.287Z,16.90
2023-10-20T15:27:35.540Z,16.80
2023-10-20T15:31:46.998Z,16.80
2023-10-20T15:35:29.799Z,16.70
2023-10-20T15:47:50.520Z,16.40
2023-10-20T15:55:47.776Z,16.20
2023-10-20T16:03:35.170Z,16.10
2023-10-20T16:07:51.274Z,16.10
2023-10-20T16:11:33.408Z,16.00
2023-10-20T16:19:26.080Z,15.90
2023-10-20T16:23:54.096Z,15.80
2023-10-20T16:28:07.241Z,15.70
2023-10-20T16:31:49.631Z,15.60
2023-10-20T16:35:57.503Z,15.50
2023-10-20T16:39:41.006Z,15.40
2023-10-20T16:43:52.015Z,15.30
2023-10-20T16:47:36.115Z,15.20
2023-10-20T16:52:04.143Z,15.10
2023-10-20T17:00:40.685Z,14.90
2023-10-20T17:04:23.584Z,14.90
2023-10-20T17:08:06.088Z,14.80
2023-10-20T17:11:48.929Z,14.80
2023-10-20T17:15:34.128Z,14.80
2023-10-20T17:19:16.295Z,14.80
2023-10-20T17:22:58.303Z,14.80
2023-10-20T17:26:40.597Z,14.80
2023-10-20T17:30:23.291Z,14.80
2023-10-20T17:34:05.439Z,14.80
2023-10-20T17:37:47.900Z,14.80
2023-10-20T17:41:29.843Z,14.80
2023-10-20T17:45:12.106Z,14.80
2023-10-20T17:48:54.080Z,14.70
2023-10-20T17:52:36.135Z,14.70
2023-10-20T17:56:18.625Z,14.60
2023-10-20T18:00:00.707Z,14.60
2023-10-20T18:03:44.272Z,14.50
2023-10-20T18:07:26.600Z,14.40
2023-10-20T18:11:10.272Z,14.20
2023-10-20T18:15:05.391Z,14.10
2023-10-20T18:18:52.270Z,13.90
2023-10-20T18:22:34.415Z,13.80
2023-10-20T18:26:16.493Z,13.70
2023-10-20T18:29:58.717Z,13.70
2023-10-20T18:33:41.515Z,13.60
2023-10-20T18:37:23.652Z,13.50
2023-10-20T18:41:13.219Z,13.50
2023-10-20T18:44:56.128Z,13.40
2023-10-20T18:48:38.479Z,13.30
2023-10-20T18:52:21.004Z,13.30
2023-10-20T18:56:07.852Z,13.30
2023-10-20T18:59:49.918Z,13.30
2023-10-20T19:03:35.333Z,13.30
2023-10-20T19:07:17.774Z,13.30
2023-10-20T19:11:11.770Z,13.30
2023-10-20T19:14:57.099Z,13.30
2023-10-20T19:18:39.454Z,13.30
2023-10-20T19:22:21.636Z,13.30
2023-10-20T19:26:09.135Z,13.30
2023-10-20T19:29:51.488Z,13.30
2023-10-20T19:33:33.605Z,13.30
2023-10-20T19:37:15.855Z,13.30
2023-10-20T19:40:58.962Z,13.40
2023-10-20T19:44:41.069Z,13.30
2023-10-20T19:48:23.254Z,13.40
2023-10-20T19:52:06.499Z,13.40
2023-10-20T19:55:48.496Z,13.50
2023-10-20T19:59:30.734Z,13.50
2023-10-20T20:03:12.910Z,13.50
2023-10-20T20:06:55.131Z,13.50
2023-10-20T20:10:37.242Z,13.40
2023-10-20T20:14:19.243Z,13.50
2023-10-20T20:18:01.338Z,13.40
2023-10-20T20:21:43.484Z,13.40
2023-10-20T20:25:25.506Z,13.40
2023-10-20T20:29:07.481Z,13.40
2023-10-20T20:32:49.608Z,13.40
2023-10-20T20:36:31.849Z,13.30
2023-10-20T20:40:13.831Z,13.30
2023-10-20T20:43:59.416Z,13.30
2023-10-20T20:47:42.045Z,13.30
2023-10-20T20:51:24.208Z,13.30
2023-10-20T20:55:06.549Z,13.30
2023-10-20T20:58:48.625Z,13.30
2023-10-20T21:02:30.661Z,13.30
2023-10-20T21:06:12.760Z,13.40
2023-10-20T21:09:54.837Z,13.30
2023-10-20T21:13:37.672Z,13.30
2023-10-20T21:17:19.947Z,13.30
2023-10-20T21:21:03.628Z,13.30
2023-10-20T21:24:45.668Z,13.30
2023-10-20T21:28:27.792Z,13.30
2023-10-20T21:32:10.026Z,13.30
2023-10-20T21:35:52.268Z,13.40
2023-10-20T21:39:34.521Z,13.40
2023-10-20T21:43:16.850Z,13.50
2023-10-20T21:46:58.821Z,13.50
2023-10-20T21:50:41.059Z,13.60
2023-10-20T21:54:23.113Z,13.60
2023-10-20T21:58:06.482Z,13.60
2023-10-20T22:01:58.129Z,13.70
2023-10-20T22:05:48.552Z,13.70
2023-10-20T22:09:38.264Z,13.70
2023-10-20T22:13:32.563Z,13.70
2023-10-20T22:17:14.966Z,13.80
2023-10-20T22:20:57.252Z,13.80
2023-10-20T22:24:39.450Z,13.70
2023-10-20T22:28:22.785Z,13.80
2023-10-20T22:32:05.245Z,13.80
2023-10-20T22:35:47.317Z,13.80
2023-10-20T22:39:29.409Z,13.80
2023-10-20T22:43:11.438Z,13.80
2023-10-20T22:46:53.496Z,13.70
2023-10-20T22:50:35.510Z,13.70
2023-10-20T22:54:17.736Z,13.70
2023-10-20T22:58:00.046Z,13.70
2023-10-20T23:01:42.124Z,13.70
2023-10-20T23:05:24.309Z,13.60
2023-10-20T23:09:06.504Z,13.60
2023-10-20T23:12:48.973Z,13.60
2023-10-20T23:16:31.121Z,13.50
2023-10-20T23:20:13.582Z,13.50
2023-10-20T23:23:56.718Z,13.50
2023-10-20T23:27:38.824Z,13.40
2023-10-20T23:31:20.852Z,13.40
2023-10-20T23:35:02.992Z,13.40
2023-10-20T23:38:45.271Z,13.40
2023-10-20T23:42:27.354Z,13.40
2023-10-20T23:46:09.460Z,13.30
2023-10-20T23:49:52.082Z,13.30
2023-10-20T23:53:34.113Z,13.20
2023-10-20T23:57:18.964Z,13.10
